Elia Basile

Olheiro - Inter
25 Nov 2027
Quinta-feira
Processo

Personalidade

Adaptabilidade (9) Ambição (10) Controvérsia (3) Lealdade (19) Pressão (9) Profissionalismo (12) Espírito Esportivo (12) Temperamento (5)

Perfil

Estilo de Treinamento Democrático
Licença Continental Pro
Determinação 10
Gestão de Pessoas 11
Motivação 7
Disciplina 6
Satisfação no Trabalho
100%
Fadiga
0%
Função Olheiro
Salário 95.4K p/s
Contrato 14.03.2028

Desempenho

Comportamento Bom
Eficácia do Treinamento
68%
Desenvolvimento do Jogador
45%
Prevenção de Lesões
80%
Implementação Tática
65%

Eventos Recentes

Participou de uma reunião de recrutamento 7d atrás
Participou de uma reunião de recrutamento 7d atrás
Participou de uma reunião de recrutamento 14d atrás
Participou de uma reunião de recrutamento 14d atrás
Participou de uma reunião de recrutamento 21d atrás
Participou de uma reunião de recrutamento 21d atrás
Participou de uma reunião de recrutamento 28d atrás
Participou de uma reunião de recrutamento 28d atrás

Monitorando agora

95
Jogador Clube Status Habilidade Confiança Observado Última observação Último voto
Jayden Addai Como Ativo 129 / 137 58% 1 01.06.2027 -
Yankuba Minteh Brighton Ativo 145 / 154 40% 3 30.05.2027 -
Arthur Atta Fiorentina Ativo 147 / 144 40% 5 30.05.2027 -
Facundo Di Biasi Gimnasia La Plata Ativo 123 / 124 40% 1 30.05.2027 -
Wesley AS Roma Ativo 157 / 150 40% 9 28.05.2027 -
Víctor Muñoz Liverpool Ativo 143 / 145 40% 5 28.05.2027 -
Matías Soulé AS Roma Ativo 168 / 156 40% 5 27.05.2027 -
Mika Godts Paris Saint-Germain Ativo 138 / 141 40% 4 27.05.2027 -
Jesús Rodríguez Como Ativo 148 / 147 40% 9 26.05.2027 -
Jofre Torrents Ajax Ativo 123 / 128 40% 2 26.05.2027 -
Luka Vušković Manchester United Ativo 139 / 147 40% 2 26.05.2027 -
Tyler Dibling Chelsea Ativo 149 / 143 40% 2 26.05.2027 -
Assane Diao Lazio Ativo 139 / 147 40% 12 25.05.2027 -
Yussif Saidu Zaragoza Ativo 124 / 127 40% 2 25.05.2027 -
Ezra Mayers West Ham United Ativo 122 / 126 40% 1 22.05.2027 -
Santiago Castro AS Roma Ativo 151 / 149 40% 6 20.05.2027 -
Juan Rodríguez Cagliari Ativo 129 / 126 40% 1 20.05.2027 -
Yasin Ayari Arsenal Ativo 144 / 146 40% 4 18.05.2027 -
Valentin Atangana Al-Ahli Ativo 114 / 135 40% 4 18.05.2027 -
Veljko Milosavljević Aston Villa Ativo 124 / 139 40% 2 18.05.2027 -
Edoardo Motta Lazio Ativo 116 / 127 40% 1 15.05.2027 -
Chemsdine Talbi Chelsea Ativo 150 / 142 40% 5 11.05.2027 -
Matías Fernández-Pardo Newcastle United Ativo 150 / 144 40% 1 10.05.2027 -
Josh Doig Sassuolo Ativo 132 / 134 40% 1 07.05.2027 -
Kota Tawaratsumida River Plate Ativo 138 / 141 40% 5 05.05.2027 -
Jhon Jhon Zenit Ativo 128 / 136 40% 1 05.05.2027 -
Karim Coulibaly RC Strasbourg Ativo 116 / 131 40% 2 03.05.2027 -
Juan Giménez Celta Ativo 126 / 121 40% 1 23.04.2027 -
Ilias Akhomach Villarreal Ativo 137 / 144 40% 2 21.04.2027 -
Sascha Britschgi Padova Ativo 125 / 127 40% 2 20.04.2027 -
Ander Astralaga Real Sociedad Ativo 129 / 131 40% 1 20.04.2027 -
Finn Jeltsch VfB Stuttgart Ativo 141 / 140 40% 1 15.04.2027 -
Christ Inao Oulaï Fiorentina Ativo 134 / 138 55% 3 13.04.2027 -
Josh King Chelsea Ativo 142 / 144 40% 2 12.04.2027 -
Nicolò Savona Nottingham Forest Ativo 151 / 142 40% 2 03.04.2027 -
Kenneth Taylor Lazio Ativo 141 / 151 40% 6 30.03.2027 -
Devyne Rensch AS Roma Ativo 152 / 139 40% 4 22.03.2027 -
Dean Huijsen Villarreal Ativo 136 / 147 40% 2 09.03.2027 -
Abubacarr Sedi Kinteh Al-Hilal Ativo 115 / 130 40% 1 09.03.2027 -
Santiago Fernández Talleres Ativo 126 / 124 40% 1 08.03.2027 -
Ignacio Perruzzi San Lorenzo Ativo 126 / 128 40% 1 06.03.2027 -
Antonio Vergara Napoli Ativo 130 / 138 40% 1 02.03.2027 -
Lucas Da Cunha Como Ativo 150 / 143 40% 2 28.12.2026 -
Ibrahim Maza Bayer Leverkusen Ativo 136 / 145 40% 4 27.12.2026 -
Borja Sainz Fiorentina Ativo 154 / 147 40% 2 26.12.2026 -
Nicolò Zaniolo Udinese Ativo 157 / 138 40% 3 22.12.2026 -
Billy Gilmour Napoli Ativo 141 / 149 40% 1 22.12.2026 -
Donyell Malen AS Roma Ativo 163 / 148 40% 4 21.12.2026 -
Yan Diomandé Real Madrid Ativo 141 / 156 40% 4 20.12.2026 -
Nuno Tavares Lazio Ativo 135 / 147 40% 3 17.12.2026 -
Rômulo RB Leipzig Ativo 152 / 144 40% 3 17.12.2026 -
Gustav Isaksen Lazio Ativo 140 / 143 40% 2 15.12.2026 -
Samú Al-Nassr Ativo 135 / 147 40% 2 08.12.2026 -
Valentín Barco Chelsea Ativo 146 / 146 40% 1 06.12.2026 -
Senny Mayulu Paris Saint-Germain Ativo 150 / 148 40% 4 03.12.2026 -
Giacomo Raspadori Atalanta Ativo 161 / 145 40% 5 02.12.2026 -
Warren Zaïre-Emery Paris Saint-Germain Ativo 163 / 163 40% 1 02.12.2026 -
Gustavo Puerta Olympiacos Ativo 138 / 140 40% 2 28.11.2026 -
Razvan Balasa Crvena Zvezda Ativo 168 / 149 40% 1 27.11.2026 -
Raoul Bellanova Atalanta Ativo 139 / 148 40% 2 12.11.2026 -
Manu Koné AS Roma Ativo 152 / 162 40% 2 10.11.2026 -
Romano Schmid Frosinone Ativo 148 / 143 40% 2 10.11.2026 -
Orkun Kökçü Besiktas Ativo 165 / 147 40% 1 07.11.2026 -
Barış Alper Yılmaz Galatasaray Ativo 147 / 150 40% 2 04.11.2026 -
Dodo Fiorentina Ativo 159 / 147 40% 1 29.10.2026 -
Rodrigo Gomes Wolverhampton Ativo 135 / 140 40% 2 22.10.2026 -
Yehor Yarmoliuk Brentford Ativo 141 / 149 40% 1 22.10.2026 -
Xavi Simons Tottenham Ativo 147 / 156 40% 2 20.10.2026 -
Moisés Caicedo Chelsea Ativo 168 / 170 40% 6 19.10.2026 Observar
Carlos Vicente Birmingham Ativo 147 / 139 40% 1 19.10.2026 -
Nico González Newcastle United Ativo 152 / 159 40% 5 16.10.2026 -
Rayan Cherki Manchester City Ativo 172 / 164 40% 4 16.10.2026 -
Tino Livramento Newcastle United Ativo 165 / 156 40% 3 15.10.2026 -
Enzo Fernández Manchester City Ativo 163 / 167 40% 1 15.10.2026 -
Adrien Truffert Bournemouth Ativo 155 / 148 40% 1 13.10.2026 -
Morgan Rogers Chelsea Ativo 152 / 160 40% 2 08.10.2026 -
Nico O'Reilly Manchester City Ativo 139 / 155 40% 1 08.10.2026 -
Kai Havertz Arsenal Ativo 152 / 159 40% 3 07.10.2026 -
Dominik Szoboszlai Liverpool Ativo 155 / 166 40% 2 07.10.2026 -
Hugo Ekitiké Liverpool Ativo 150 / 160 40% 3 05.10.2026 -
Sandro Tonali Tottenham Ativo 173 / 171 40% 1 05.10.2026 -
Dango Ouattara Brentford Ativo 153 / 143 40% 2 04.10.2026 -
Boubacar Kamara Aston Villa Ativo 171 / 165 40% 2 28.09.2026 -
Gonzalo Fulham Ativo 149 / 146 40% 1 27.09.2026 -
Bradley Barcola Liverpool Ativo 163 / 163 40% 1 27.09.2026 -
Adam Wharton Crystal Palace Ativo 145 / 151 40% 2 21.09.2026 -
Alexis Mac Allister Liverpool Ativo 153 / 160 40% 1 17.09.2026 -
Gabriel Martinelli Brighton Negociando 164 / 161 40% 1 17.09.2026 -
Mason Mount Manchester United Ativo 147 / 149 40% 1 15.09.2026 -
Elliot Anderson Manchester City Ativo 152 / 152 40% 1 14.09.2026 -
Ryan Gravenberch Liverpool Ativo 169 / 159 40% 1 13.09.2026 -
Amad Manchester United Ativo 160 / 153 40% 1 12.09.2026 -
Éderson Feyenoord Ativo 161 / 158 40% 1 10.09.2026 -
Rico Lewis Manchester City Ativo 150 / 154 40% 1 09.09.2026 -
Jeremie Frimpong Liverpool Ativo 163 / 157 40% 1 07.09.2026 -